createdAt,value
2018-09-25T00:00:37.529Z,58.90
2018-09-25T00:01:45.409Z,58.80
2018-09-25T00:02:53.295Z,58.80
2018-09-25T00:04:01.137Z,59.00
2018-09-25T00:05:09.023Z,59.00
2018-09-25T00:06:16.902Z,58.90
2018-09-25T00:07:24.765Z,59.10
2018-09-25T00:08:32.484Z,59.10
2018-09-25T00:09:40.445Z,59.20
2018-09-25T00:10:48.314Z,59.40
2018-09-25T00:11:56.504Z,59.70
2018-09-25T00:13:04.294Z,60.00
2018-09-25T00:14:12.074Z,59.60
2018-09-25T00:15:20.301Z,59.60
2018-09-25T00:16:28.158Z,59.60
2018-09-25T00:17:36.106Z,59.60
2018-09-25T00:18:44.209Z,59.60
2018-09-25T00:19:52.086Z,59.60
2018-09-25T00:20:59.865Z,59.70
2018-09-25T00:22:07.829Z,60.00
2018-09-25T00:23:15.610Z,60.30
2018-09-25T00:24:23.473Z,60.40
2018-09-25T00:25:31.417Z,60.40
2018-09-25T00:26:39.434Z,60.40
2018-09-25T00:27:47.680Z,60.50
2018-09-25T00:28:55.865Z,60.50
2018-09-25T00:35:46.834Z,59.80
2018-09-25T00:36:54.837Z,60.40
2018-09-25T00:38:02.777Z,60.50
2018-09-25T00:39:13.064Z,60.40
2018-09-25T00:40:21.153Z,60.60
2018-09-25T00:41:29.040Z,60.80
2018-09-25T00:42:36.793Z,60.90
2018-09-25T00:43:44.651Z,61.00
2018-09-25T00:44:52.594Z,61.00
2018-09-25T00:46:00.581Z,61.00
2018-09-25T00:47:08.755Z,60.90
2018-09-25T00:48:16.446Z,61.10
2018-09-25T00:49:24.193Z,61.00
2018-09-25T00:50:32.142Z,61.00
2018-09-25T00:51:40.046Z,61.10
2018-09-25T00:52:47.930Z,61.10
2018-09-25T00:53:55.817Z,61.30
2018-09-25T00:55:03.857Z,61.50
2018-09-25T00:56:11.955Z,61.50
2018-09-25T00:57:20.301Z,61.30
2018-09-25T00:58:28.090Z,61.40
2018-09-25T00:59:35.981Z,61.40
2018-09-25T01:00:43.787Z,61.40
2018-09-25T01:01:51.662Z,61.50
2018-09-25T01:02:59.625Z,61.50
2018-09-25T01:04:07.565Z,61.40
2018-09-25T01:05:15.550Z,62.40
2018-09-25T01:06:23.456Z,61.60
2018-09-25T01:07:31.261Z,61.60
2018-09-25T01:08:39.201Z,61.70
2018-09-25T01:09:47.261Z,61.90
2018-09-25T01:10:55.423Z,61.90
2018-09-25T01:12:03.429Z,61.90
2018-09-25T01:13:11.380Z,62.00
2018-09-25T01:14:19.272Z,61.90
2018-09-25T01:15:27.152Z,61.90
2018-09-25T01:16:35.158Z,61.70
2018-09-25T01:17:43.144Z,61.80
2018-09-25T01:18:51.065Z,61.80
2018-09-25T01:19:59.108Z,61.70
2018-09-25T01:21:07.051Z,61.80
2018-09-25T01:22:15.095Z,61.70
2018-09-25T01:23:22.989Z,62.00
2018-09-25T01:24:30.884Z,62.10
2018-09-25T01:25:38.649Z,62.20
2018-09-25T01:26:46.599Z,62.40
2018-09-25T01:27:54.641Z,62.50
2018-09-25T01:29:02.583Z,62.70
2018-09-25T01:30:10.402Z,62.70
2018-09-25T01:31:18.281Z,62.70
2018-09-25T01:32:26.233Z,62.80
2018-09-25T01:33:34.322Z,62.50
2018-09-25T01:34:42.240Z,62.50
2018-09-25T01:35:50.287Z,62.50
2018-09-25T01:36:58.047Z,62.50
2018-09-25T01:38:05.890Z,62.50
2018-09-25T01:39:13.837Z,62.50
2018-09-25T01:40:21.789Z,62.60
2018-09-25T01:41:30.073Z,62.50
2018-09-25T01:42:38.016Z,62.40
2018-09-25T01:43:45.906Z,62.50
2018-09-25T01:44:53.798Z,62.80
2018-09-25T01:46:02.045Z,62.80
2018-09-25T01:47:09.978Z,62.90
2018-09-25T01:48:17.761Z,63.00
2018-09-25T01:49:25.635Z,63.00
2018-09-25T01:50:33.631Z,63.40
2018-09-25T01:51:41.478Z,63.40
2018-09-25T01:52:49.415Z,63.30
2018-09-25T01:53:57.336Z,63.30
2018-09-25T01:55:05.345Z,63.40
2018-09-25T01:56:13.207Z,63.30
2018-09-25T01:57:21.042Z,63.30
2018-09-25T01:58:28.920Z,63.30
2018-09-25T01:59:36.892Z,63.30
2018-09-25T02:00:44.919Z,63.50
2018-09-25T02:01:52.814Z,64.10
2018-09-25T02:03:00.671Z,63.20
2018-09-25T02:04:08.545Z,63.70
2018-09-25T02:05:16.379Z,63.80
2018-09-25T02:06:24.340Z,64.00
2018-09-25T02:07:32.082Z,64.10
2018-09-25T02:08:39.918Z,64.10
2018-09-25T02:09:47.717Z,64.10
2018-09-25T02:10:55.629Z,64.10
2018-09-25T02:12:03.501Z,64.30
2018-09-25T02:13:11.402Z,64.20
2018-09-25T02:14:19.170Z,64.10
2018-09-25T02:15:27.107Z,64.10
2018-09-25T02:16:35.011Z,64.10
2018-09-25T02:17:42.958Z,63.90
2018-09-25T02:18:50.746Z,63.90
2018-09-25T02:19:58.989Z,63.90
2018-09-25T02:21:06.779Z,63.90
2018-09-25T02:22:14.651Z,63.90
2018-09-25T02:23:22.534Z,64.00
2018-09-25T02:24:30.514Z,64.90
2018-09-25T02:25:38.813Z,64.10
2018-09-25T02:26:46.763Z,64.20
2018-09-25T02:27:54.662Z,64.10
2018-09-25T02:29:02.565Z,64.30
2018-09-25T02:30:10.619Z,65.10
2018-09-25T02:31:18.662Z,64.60
2018-09-25T02:32:26.473Z,64.60
2018-09-25T02:33:34.326Z,64.60
2018-09-25T02:34:42.307Z,64.40
2018-09-25T02:35:50.439Z,64.40
2018-09-25T02:36:58.509Z,64.00
2018-09-25T02:38:06.381Z,64.00
2018-09-25T02:39:14.572Z,64.10
2018-09-25T02:40:22.469Z,63.90
2018-09-25T02:41:30.307Z,63.90
2018-09-25T02:42:38.239Z,63.70
2018-09-25T02:43:46.268Z,63.60
2018-09-25T02:44:54.226Z,63.50
2018-09-25T02:46:02.061Z,63.60
2018-09-25T02:47:09.950Z,63.40
2018-09-25T02:48:17.798Z,63.40
2018-09-25T02:49:25.708Z,62.90
2018-09-25T02:50:33.552Z,63.00
2018-09-25T02:51:41.419Z,62.80
2018-09-25T02:52:49.326Z,62.80
2018-09-25T02:53:57.211Z,62.70
2018-09-25T02:55:04.969Z,62.70
2018-09-25T02:56:12.774Z,62.50
2018-09-25T02:57:20.533Z,62.50
2018-09-25T02:58:28.366Z,62.70
2018-09-25T02:59:36.156Z,62.70
2018-09-25T03:00:43.989Z,63.10
2018-09-25T03:01:51.781Z,62.90
2018-09-25T03:02:59.746Z,62.70
2018-09-25T03:04:07.741Z,62.80
2018-09-25T03:05:15.621Z,62.70
2018-09-25T03:06:23.570Z,62.70
2018-09-25T03:07:31.561Z,62.70
2018-09-25T03:08:39.402Z,62.70
2018-09-25T03:09:47.306Z,63.00
2018-09-25T03:10:55.451Z,63.10
2018-09-25T03:12:03.659Z,63.30
2018-09-25T03:13:11.537Z,64.10
2018-09-25T03:14:19.478Z,63.40
2018-09-25T03:15:27.478Z,63.20
2018-09-25T03:16:35.453Z,63.30
2018-09-25T03:17:43.431Z,63.30
2018-09-25T03:18:51.320Z,63.20
2018-09-25T03:19:59.218Z,63.20
2018-09-25T03:21:07.012Z,63.30
2018-09-25T03:22:14.929Z,63.40
2018-09-25T03:23:22.783Z,63.70
2018-09-25T03:24:30.501Z,63.50
2018-09-25T03:25:38.444Z,63.50
2018-09-25T03:26:46.550Z,63.60
2018-09-25T03:27:54.324Z,63.50
2018-09-25T03:29:02.533Z,63.30
2018-09-25T03:30:11.102Z,63.40
2018-09-25T03:31:19.018Z,63.40
2018-09-25T03:32:26.909Z,63.40
2018-09-25T03:33:34.850Z,63.50
2018-09-25T03:34:42.737Z,63.50
2018-09-25T03:35:50.610Z,63.70
2018-09-25T03:36:58.398Z,63.70
2018-09-25T03:38:06.378Z,63.70
2018-09-25T03:39:14.140Z,63.90
2018-09-25T03:40:21.991Z,64.80
2018-09-25T03:41:30.035Z,64.10
2018-09-25T03:42:38.252Z,64.10
2018-09-25T03:43:46.152Z,64.10
2018-09-25T03:44:54.014Z,64.30
2018-09-25T03:46:01.866Z,64.30
2018-09-25T03:47:09.770Z,64.30
2018-09-25T03:48:17.513Z,64.30
2018-09-25T03:49:25.286Z,64.30
2018-09-25T03:50:33.111Z,64.30
2018-09-25T03:51:41.003Z,64.50
2018-09-25T03:52:48.956Z,64.50
2018-09-25T03:53:57.374Z,64.30
2018-09-25T03:55:05.314Z,64.10
2018-09-25T03:56:13.186Z,64.10
2018-09-25T03:57:21.057Z,64.10
2018-09-25T03:58:29.340Z,64.10
2018-09-25T03:59:37.389Z,64.20
2018-09-25T04:00:45.352Z,64.10
2018-09-25T04:01:53.396Z,64.60
2018-09-25T04:03:01.735Z,64.20
2018-09-25T04:04:09.657Z,64.40
2018-09-25T04:05:17.825Z,64.30
2018-09-25T04:06:25.718Z,64.10
2018-09-25T04:07:33.514Z,64.30
2018-09-25T04:08:41.229Z,64.60
2018-09-25T04:09:49.116Z,64.30
2018-09-25T04:10:56.937Z,64.10
2018-09-25T04:12:04.857Z,64.10
2018-09-25T04:13:12.930Z,64.00
2018-09-25T04:14:20.936Z,64.00
2018-09-25T04:15:28.873Z,64.00
2018-09-25T04:16:36.760Z,64.10
2018-09-25T04:17:44.589Z,64.30
2018-09-25T04:18:52.770Z,64.00
2018-09-25T04:20:00.916Z,64.00
2018-09-25T04:21:08.842Z,64.10
2018-09-25T04:22:16.801Z,64.10
2018-09-25T04:23:24.577Z,64.10
2018-09-25T04:24:32.519Z,64.10
2018-09-25T04:25:40.529Z,64.10
2018-09-25T04:26:48.301Z,64.20
2018-09-25T04:27:56.271Z,64.20
2018-09-25T04:29:04.106Z,64.30
2018-09-25T04:30:12.217Z,64.30
2018-09-25T04:31:20.191Z,64.30
2018-09-25T04:32:28.094Z,64.20
2018-09-25T04:33:36.176Z,64.30
2018-09-25T04:34:44.084Z,64.10
2018-09-25T04:35:52.074Z,64.10
2018-09-25T04:37:00.010Z,64.10
2018-09-25T04:38:08.000Z,64.10
2018-09-25T04:39:15.787Z,64.30
2018-09-25T04:40:23.636Z,64.40
2018-09-25T04:41:31.599Z,64.50
2018-09-25T04:42:39.346Z,64.50
2018-09-25T04:43:47.225Z,64.50
2018-09-25T04:44:55.129Z,64.50
2018-09-25T04:46:03.266Z,64.40
2018-09-25T04:47:11.676Z,64.50
2018-09-25T04:48:19.566Z,64.50
2018-09-25T04:49:27.457Z,64.30
2018-09-25T04:50:35.397Z,64.30
2018-09-25T04:51:43.252Z,64.50
2018-09-25T04:52:51.317Z,64.60
2018-09-25T04:53:59.157Z,64.40
2018-09-25T04:55:06.923Z,64.20
2018-09-25T04:56:15.010Z,64.10
2018-09-25T04:57:22.854Z,63.80
2018-09-25T04:58:31.055Z,63.80
2018-09-25T04:59:38.818Z,63.80
2018-09-25T05:00:46.678Z,63.40
2018-09-25T05:01:54.597Z,63.00
2018-09-25T05:03:02.462Z,63.00
2018-09-25T05:04:10.358Z,62.90
2018-09-25T05:05:18.362Z,62.40
2018-09-25T05:06:26.554Z,62.70
2018-09-25T05:07:34.456Z,62.70
2018-09-25T05:08:42.657Z,62.80
2018-09-25T05:09:50.479Z,63.50
2018-09-25T05:10:58.761Z,63.00
2018-09-25T05:12:06.739Z,62.80
2018-09-25T05:13:14.622Z,62.90
2018-09-25T05:14:22.716Z,63.20
2018-09-25T05:15:30.677Z,63.40
2018-09-25T05:16:38.589Z,63.30
2018-09-25T05:17:46.460Z,64.40
2018-09-25T05:18:54.578Z,64.60
2018-09-25T05:20:02.604Z,64.50
2018-09-25T05:21:10.704Z,64.80
2018-09-25T05:22:18.711Z,65.20
2018-09-25T05:23:26.786Z,65.10
2018-09-25T05:24:34.819Z,65.00
2018-09-25T05:25:42.614Z,64.90
2018-09-25T05:26:50.590Z,64.80
2018-09-25T05:27:58.441Z,65.00
2018-09-25T05:29:06.305Z,65.20
2018-09-25T05:30:14.287Z,65.40
2018-09-25T05:31:22.234Z,65.50
2018-09-25T05:32:30.149Z,65.40
2018-09-25T05:33:38.035Z,65.40
2018-09-25T05:34:46.130Z,65.70
2018-09-25T05:35:54.094Z,65.50
2018-09-25T05:37:02.036Z,65.20
2018-09-25T05:38:09.913Z,65.20
2018-09-25T05:39:17.836Z,65.00
2018-09-25T05:40:25.736Z,65.00
2018-09-25T05:41:33.714Z,64.80
2018-09-25T05:42:41.695Z,64.80
2018-09-25T05:43:49.897Z,64.80
2018-09-25T05:44:57.712Z,64.60
2018-09-25T05:46:05.651Z,64.80
2018-09-25T05:47:13.635Z,65.00
2018-09-25T05:48:21.604Z,65.10
2018-09-25T05:49:29.750Z,65.10
2018-09-25T05:50:37.949Z,65.00
2018-09-25T05:51:45.945Z,65.30
2018-09-25T05:52:53.886Z,65.20
2018-09-25T05:54:01.850Z,65.30
2018-09-25T05:55:09.705Z,65.30
2018-09-25T05:56:17.566Z,65.30
2018-09-25T05:57:25.389Z,65.00
2018-09-25T05:58:33.301Z,64.80
2018-09-25T05:59:41.220Z,64.80
2018-09-25T06:00:49.067Z,64.80
2018-09-25T06:01:56.884Z,64.60
2018-09-25T06:03:05.006Z,64.30
2018-09-25T06:04:13.018Z,64.60
2018-09-25T06:05:21.322Z,64.60
2018-09-25T06:06:29.318Z,64.60
2018-09-25T06:07:37.214Z,64.80
2018-09-25T06:08:45.078Z,64.70
2018-09-25T06:09:53.199Z,64.90
2018-09-25T06:11:01.063Z,65.00
2018-09-25T06:12:08.849Z,64.70
2018-09-25T06:13:16.774Z,64.30
2018-09-25T06:14:24.666Z,63.80
2018-09-25T06:15:32.509Z,63.50
2018-09-25T06:16:40.348Z,63.40
2018-09-25T06:17:48.096Z,63.20
2018-09-25T06:18:55.982Z,63.10
2018-09-25T06:20:03.921Z,63.20
2018-09-25T06:21:11.786Z,63.30
2018-09-25T06:22:19.613Z,63.50
2018-09-25T06:23:27.411Z,63.80
2018-09-25T06:24:35.282Z,63.80
2018-09-25T06:25:43.180Z,63.80
2018-09-25T06:26:51.026Z,63.70
2018-09-25T06:27:58.815Z,63.60
2018-09-25T06:29:06.814Z,63.80
2018-09-25T06:30:14.885Z,63.80
2018-09-25T06:31:22.852Z,64.00
2018-09-25T06:32:30.814Z,64.00
2018-09-25T06:33:38.659Z,63.90
2018-09-25T06:34:46.560Z,63.90
2018-09-25T06:35:54.427Z,64.00
2018-09-25T06:37:02.217Z,64.30
2018-09-25T06:38:10.124Z,63.80
2018-09-25T06:39:18.021Z,63.70
2018-09-25T06:40:26.012Z,63.60
2018-09-25T06:41:33.802Z,63.40
2018-09-25T06:42:41.650Z,63.60
2018-09-25T06:43:49.906Z,63.50
2018-09-25T06:44:57.902Z,63.40
2018-09-25T06:46:05.770Z,63.60
2018-09-25T06:47:13.908Z,63.40
2018-09-25T06:48:21.781Z,63.70
2018-09-25T06:49:29.677Z,63.70
2018-09-25T06:50:37.593Z,63.90
2018-09-25T06:51:45.353Z,63.70
2018-09-25T06:52:53.370Z,63.70
2018-09-25T06:54:01.130Z,63.60
2018-09-25T06:55:09.014Z,63.50
2018-09-25T06:56:17.005Z,63.50
2018-09-25T06:57:24.773Z,63.40
2018-09-25T06:58:32.661Z,63.40
2018-09-25T06:59:40.581Z,63.30
2018-09-25T07:00:48.617Z,63.40
2018-09-25T07:01:56.333Z,63.40
2018-09-25T07:03:04.160Z,63.50
2018-09-25T07:04:12.125Z,63.60
2018-09-25T07:05:19.942Z,63.40
2018-09-25T07:06:27.895Z,63.50
2018-09-25T07:07:35.833Z,63.80
2018-09-25T07:08:43.798Z,64.00
2018-09-25T07:09:51.734Z,63.80
2018-09-25T07:10:59.724Z,63.80
2018-09-25T07:12:07.816Z,63.70
2018-09-25T07:13:15.726Z,63.90
2018-09-25T07:14:23.596Z,63.80
2018-09-25T07:15:31.587Z,63.70
2018-09-25T07:16:39.638Z,63.30
2018-09-25T07:17:47.538Z,63.30
2018-09-25T07:18:55.385Z,63.30
2018-09-25T07:20:03.168Z,63.30
2018-09-25T07:21:11.050Z,63.90
2018-09-25T07:22:18.785Z,62.90
2018-09-25T07:23:26.689Z,63.30
2018-09-25T07:24:34.486Z,62.90
2018-09-25T07:25:42.373Z,62.90
2018-09-25T07:26:50.197Z,63.00
2018-09-25T07:27:57.942Z,63.00
2018-09-25T07:29:05.794Z,62.40
2018-09-25T07:30:13.765Z,62.70
2018-09-25T07:31:21.632Z,62.50
2018-09-25T07:32:29.445Z,62.30
2018-09-25T07:33:37.375Z,62.10
2018-09-25T07:34:45.193Z,62.30
2018-09-25T07:35:53.013Z,62.40
2018-09-25T07:37:01.428Z,61.80
2018-09-25T07:38:09.501Z,61.80
2018-09-25T07:39:17.554Z,61.90
2018-09-25T07:40:25.379Z,61.70
2018-09-25T07:41:33.327Z,61.20
2018-09-25T07:42:41.180Z,61.30
2018-09-25T07:43:49.146Z,61.20
2018-09-25T07:44:57.193Z,60.40
2018-09-25T07:46:05.086Z,60.40
2018-09-25T07:47:12.924Z,60.40
2018-09-25T07:48:20.876Z,61.00
2018-09-25T07:49:28.794Z,60.90
2018-09-25T07:50:36.755Z,60.30
2018-09-25T07:51:44.695Z,60.60
2018-09-25T07:52:52.666Z,60.90
2018-09-25T07:54:00.395Z,60.80
2018-09-25T07:55:08.521Z,59.10
2018-09-25T07:56:16.293Z,58.50
2018-09-25T07:57:24.176Z,58.80
2018-09-25T07:58:32.104Z,58.80
2018-09-25T07:59:39.915Z,58.70
2018-09-25T08:00:47.624Z,59.00
2018-09-25T08:01:55.525Z,59.10
2018-09-25T08:03:03.844Z,59.10
2018-09-25T08:04:13.654Z,59.20
2018-09-25T08:05:21.590Z,59.80
2018-09-25T08:06:29.596Z,59.20
2018-09-25T08:07:37.606Z,59.30
2018-09-25T08:08:45.657Z,59.30
2018-09-25T08:09:53.630Z,59.30
2018-09-25T08:11:01.642Z,59.40
2018-09-25T08:12:09.666Z,59.40
2018-09-25T08:13:17.579Z,58.80
2018-09-25T08:14:25.585Z,58.80
2018-09-25T08:15:33.751Z,58.50
2018-09-25T08:16:41.482Z,58.30
2018-09-25T08:17:49.414Z,57.80
2018-09-25T08:18:57.267Z,57.90
2018-09-25T08:20:05.222Z,57.90
2018-09-25T08:21:13.114Z,58.10
2018-09-25T08:22:21.427Z,58.00
2018-09-25T08:23:29.323Z,57.30
2018-09-25T08:24:37.298Z,57.20
2018-09-25T08:25:45.196Z,57.60
2018-09-25T08:26:53.066Z,57.90
2018-09-25T08:28:00.998Z,58.00
2018-09-25T08:29:09.123Z,58.20
2018-09-25T08:30:17.069Z,56.90
2018-09-25T08:31:24.978Z,56.60
2018-09-25T08:32:32.769Z,55.50
2018-09-25T08:33:41.073Z,56.60
2018-09-25T08:34:48.895Z,56.70
2018-09-25T08:35:56.801Z,56.50
2018-09-25T08:37:04.697Z,57.60
2018-09-25T08:38:12.569Z,56.20
2018-09-25T08:39:20.739Z,56.20
2018-09-25T08:40:28.355Z,57.20
2018-09-25T08:41:36.302Z,56.50
2018-09-25T08:42:44.243Z,55.70
2018-09-25T08:43:52.315Z,56.40
2018-09-25T08:45:00.316Z,56.20
2018-09-25T08:46:08.750Z,54.80
2018-09-25T08:47:16.636Z,54.60
2018-09-25T08:48:24.628Z,54.50
2018-09-25T08:49:32.422Z,54.50
2018-09-25T08:50:40.697Z,54.50
2018-09-25T08:51:48.638Z,54.40
2018-09-25T08:52:56.500Z,54.30
2018-09-25T08:54:04.296Z,52.70
2018-09-25T08:55:12.298Z,52.70
2018-09-25T08:56:20.158Z,52.40
2018-09-25T08:57:28.182Z,51.70
2018-09-25T08:58:35.954Z,51.40
2018-09-25T08:59:43.790Z,51.40
2018-09-25T09:00:51.711Z,51.00
2018-09-25T09:01:59.495Z,50.60
2018-09-25T09:03:07.622Z,50.60
2018-09-25T09:04:15.510Z,48.20
2018-09-25T09:05:23.520Z,47.60
2018-09-25T09:06:31.417Z,48.20
2018-09-25T09:07:39.334Z,48.50
2018-09-25T09:08:47.353Z,47.60
2018-09-25T09:09:55.172Z,47.90
2018-09-25T09:11:03.075Z,47.80
2018-09-25T09:12:11.047Z,47.70
2018-09-25T09:13:19.042Z,47.40
2018-09-25T09:14:26.949Z,47.90
2018-09-25T09:15:34.841Z,47.70
2018-09-25T09:16:42.695Z,47.80
2018-09-25T09:17:50.618Z,47.40
2018-09-25T09:18:58.461Z,47.00
2018-09-25T09:20:06.350Z,46.00
2018-09-25T09:21:14.289Z,45.00
2018-09-25T09:22:22.128Z,45.00
2018-09-25T09:23:30.006Z,46.20
2018-09-25T09:24:38.137Z,46.20
2018-09-25T09:25:46.215Z,45.90
2018-09-25T09:26:54.109Z,46.10
2018-09-25T09:28:02.016Z,44.90
2018-09-25T09:29:10.122Z,45.70
2018-09-25T09:30:18.125Z,45.40
2018-09-25T09:31:26.026Z,45.00
2018-09-25T09:32:34.075Z,45.90
2018-09-25T09:33:41.954Z,45.60
2018-09-25T09:34:50.057Z,45.50
2018-09-25T09:35:58.073Z,44.60
2018-09-25T09:37:06.029Z,43.60
2018-09-25T09:38:13.845Z,43.50
2018-09-25T09:39:21.765Z,43.80
2018-09-25T09:40:29.661Z,43.80
2018-09-25T09:41:37.637Z,43.60
2018-09-25T09:42:45.282Z,43.60
2018-09-25T09:43:53.182Z,43.40
2018-09-25T09:45:01.305Z,43.50
2018-09-25T09:46:09.366Z,43.60
2018-09-25T09:47:17.269Z,44.00
2018-09-25T09:48:25.309Z,41.40
2018-09-25T09:49:33.611Z,41.50
2018-09-25T09:50:41.502Z,41.20
2018-09-25T09:51:49.303Z,42.10
2018-09-25T09:52:57.487Z,42.20
2018-09-25T09:54:05.488Z,43.20
2018-09-25T09:55:13.474Z,44.00
2018-09-25T09:56:21.529Z,43.70
2018-09-25T09:57:29.467Z,42.40
2018-09-25T09:58:37.415Z,42.60
2018-09-25T09:59:45.437Z,40.80
2018-09-25T10:00:53.575Z,40.30
2018-09-25T10:02:01.447Z,41.00
2018-09-25T10:03:09.362Z,40.30
2018-09-25T10:04:17.301Z,40.50
2018-09-25T10:05:25.384Z,40.20
2018-09-25T10:06:33.242Z,40.10
2018-09-25T10:07:41.241Z,40.50
2018-09-25T10:08:49.145Z,41.20
2018-09-25T10:09:57.094Z,41.10
2018-09-25T10:11:05.067Z,39.40
2018-09-25T10:12:13.049Z,40.50
2018-09-25T10:13:20.952Z,41.20
2018-09-25T10:14:28.866Z,39.90
2018-09-25T10:15:36.955Z,39.70
2018-09-25T10:16:44.783Z,41.00
2018-09-25T10:17:52.686Z,40.70
2018-09-25T10:19:00.640Z,40.50
2018-09-25T10:20:08.815Z,41.10
2018-09-25T10:21:16.730Z,39.70
2018-09-25T10:22:24.646Z,40.70
2018-09-25T10:23:32.541Z,41.70
2018-09-25T10:24:40.434Z,39.70
2018-09-25T10:25:48.284Z,38.50
2018-09-25T10:26:56.212Z,40.50
2018-09-25T10:28:04.197Z,39.00
2018-09-25T10:29:12.260Z,39.80
2018-09-25T10:30:20.070Z,39.50
2018-09-25T10:31:28.004Z,39.90
2018-09-25T10:32:35.755Z,40.40
2018-09-25T10:33:43.594Z,40.00
2018-09-25T10:34:51.330Z,39.10
2018-09-25T10:35:59.482Z,39.90
2018-09-25T10:37:07.573Z,39.80
2018-09-25T10:38:15.516Z,38.30
2018-09-25T10:39:23.566Z,38.90
2018-09-25T10:40:31.538Z,38.60
2018-09-25T10:41:39.437Z,37.40
2018-09-25T10:42:47.531Z,38.20
2018-09-25T10:43:55.645Z,38.80
2018-09-25T10:45:03.803Z,39.50
2018-09-25T10:46:11.946Z,39.00
2018-09-25T10:47:19.989Z,37.60
2018-09-25T10:48:28.124Z,37.70
2018-09-25T10:49:35.943Z,38.20
2018-09-25T10:50:44.159Z,39.10
2018-09-25T10:51:51.912Z,38.30
2018-09-25T10:52:59.776Z,38.00
2018-09-25T10:54:07.923Z,38.40
2018-09-25T10:55:16.005Z,38.00
2018-09-25T10:56:24.364Z,39.00
2018-09-25T10:57:32.360Z,39.80
2018-09-25T10:58:40.281Z,41.10
2018-09-25T10:59:48.203Z,38.10
2018-09-25T11:00:56.484Z,40.10
2018-09-25T11:02:04.426Z,39.80
2018-09-25T11:03:12.558Z,39.40
2018-09-25T11:04:20.176Z,39.70
2018-09-25T11:05:28.073Z,39.70
2018-09-25T11:06:36.372Z,39.60
2018-09-25T11:07:44.358Z,40.10
2018-09-25T11:08:52.102Z,38.70
2018-09-25T11:10:00.067Z,41.20
2018-09-25T11:11:07.942Z,40.40
2018-09-25T11:12:15.842Z,40.50
2018-09-25T11:13:24.021Z,40.40
2018-09-25T11:14:31.781Z,40.60
2018-09-25T11:15:39.632Z,41.60
2018-09-25T11:16:47.509Z,40.10
2018-09-25T11:17:55.489Z,40.20
2018-09-25T11:19:03.231Z,40.40
2018-09-25T11:20:11.542Z,40.00
2018-09-25T11:21:19.398Z,39.80
2018-09-25T11:22:27.425Z,39.70
2018-09-25T11:23:35.457Z,38.90
2018-09-25T11:24:43.257Z,39.60
2018-09-25T11:25:51.007Z,40.00
2018-09-25T11:26:58.909Z,40.00
2018-09-25T11:28:06.701Z,40.00
2018-09-25T11:29:14.618Z,40.80
2018-09-25T11:30:22.513Z,40.50
2018-09-25T11:31:30.506Z,40.50
2018-09-25T11:32:38.516Z,38.80
2018-09-25T11:33:46.257Z,39.20
2018-09-25T11:34:54.149Z,38.70
2018-09-25T11:36:01.869Z,38.00
2018-09-25T11:37:09.864Z,38.10
2018-09-25T11:38:17.945Z,38.50
2018-09-25T11:39:25.754Z,38.60
2018-09-25T11:40:33.705Z,39.40
2018-09-25T11:41:41.425Z,39.40
2018-09-25T11:42:49.210Z,39.30
2018-09-25T11:43:57.146Z,39.30
2018-09-25T11:45:05.085Z,37.70
2018-09-25T11:46:12.915Z,36.50
2018-09-25T11:47:20.888Z,37.00
2018-09-25T11:48:28.754Z,36.40
2018-09-25T11:49:36.607Z,37.10
2018-09-25T11:50:44.425Z,37.10
2018-09-25T11:51:52.173Z,38.50
2018-09-25T11:53:00.139Z,39.10
2018-09-25T11:54:08.070Z,38.40
2018-09-25T11:55:16.257Z,38.20
2018-09-25T11:56:24.188Z,38.00
2018-09-25T11:57:32.010Z,37.50
2018-09-25T11:58:40.179Z,38.30
2018-09-25T11:59:47.841Z,38.70
2018-09-25T12:00:55.816Z,37.40
2018-09-25T12:02:03.840Z,38.00
2018-09-25T12:03:11.710Z,39.00
2018-09-25T12:04:19.577Z,37.70
2018-09-25T12:05:27.485Z,37.70
2018-09-25T12:06:35.364Z,35.20
2018-09-25T12:07:43.405Z,36.00
2018-09-25T12:08:51.226Z,34.70
2018-09-25T12:09:59.115Z,35.00
2018-09-25T12:11:06.952Z,35.90
2018-09-25T12:12:14.973Z,36.10
2018-09-25T12:13:22.801Z,35.40
2018-09-25T12:14:30.670Z,36.30
2018-09-25T12:15:38.542Z,36.40
2018-09-25T12:16:46.429Z,36.70
2018-09-25T12:17:54.489Z,36.80
2018-09-25T12:19:02.259Z,36.50
2018-09-25T12:20:10.202Z,36.40
2018-09-25T12:21:18.098Z,36.10
2018-09-25T12:22:25.937Z,35.90
2018-09-25T12:23:33.787Z,35.00
2018-09-25T12:24:41.665Z,36.40
2018-09-25T12:25:49.620Z,37.00
2018-09-25T12:26:57.468Z,35.30
2018-09-25T12:28:05.320Z,35.10
2018-09-25T12:29:13.206Z,35.70
2018-09-25T12:30:21.106Z,35.40
2018-09-25T12:31:28.932Z,36.00
2018-09-25T12:32:36.935Z,36.60
2018-09-25T12:33:44.698Z,37.20
2018-09-25T12:34:52.857Z,35.00
2018-09-25T12:36:00.614Z,35.40
2018-09-25T12:37:08.545Z,36.40
2018-09-25T12:38:16.379Z,35.40
2018-09-25T12:39:24.167Z,35.50
2018-09-25T12:40:31.973Z,35.90
2018-09-25T12:41:39.773Z,36.10
2018-09-25T12:42:47.541Z,35.30
2018-09-25T12:43:55.401Z,35.20
2018-09-25T12:45:03.257Z,34.80
2018-09-25T12:46:11.173Z,35.10
2018-09-25T12:47:19.265Z,35.70
2018-09-25T12:48:27.025Z,35.80
2018-09-25T12:49:34.825Z,34.60
2018-09-25T12:50:42.849Z,34.60
2018-09-25T12:51:50.681Z,33.50
2018-09-25T12:52:58.685Z,34.50
2018-09-25T12:54:06.589Z,35.00
2018-09-25T12:55:14.354Z,33.80
2018-09-25T12:56:22.208Z,34.00
2018-09-25T12:57:29.977Z,34.50
2018-09-25T12:58:37.840Z,33.70
2018-09-25T12:59:45.705Z,34.10
2018-09-25T13:00:53.701Z,34.30
2018-09-25T13:02:01.590Z,34.00
2018-09-25T13:03:09.626Z,33.70
2018-09-25T13:04:17.603Z,33.80
2018-09-25T13:05:25.622Z,33.80
2018-09-25T13:06:33.546Z,34.30
2018-09-25T13:07:41.513Z,34.50
2018-09-25T13:08:49.308Z,34.40
2018-09-25T13:09:57.318Z,34.00
2018-09-25T13:11:05.237Z,34.80
2018-09-25T13:12:13.134Z,34.00
2018-09-25T13:13:21.052Z,32.20
2018-09-25T13:14:28.947Z,32.60
2018-09-25T13:15:36.799Z,32.70
2018-09-25T13:16:45.217Z,32.70
2018-09-25T13:17:53.426Z,34.20
2018-09-25T13:19:01.325Z,33.70
2018-09-25T13:20:09.264Z,33.50
2018-09-25T13:21:17.142Z,33.50
2018-09-25T13:22:25.062Z,32.20
2018-09-25T13:23:33.033Z,32.40
2018-09-25T13:24:40.906Z,32.60
2018-09-25T13:25:48.799Z,32.80
2018-09-25T13:26:56.621Z,33.50
2018-09-25T13:28:04.557Z,32.80
2018-09-25T13:29:12.373Z,33.60
2018-09-25T13:30:20.330Z,32.80
2018-09-25T13:31:28.230Z,32.00
2018-09-25T13:32:36.401Z,32.70
2018-09-25T13:33:44.455Z,32.70
2018-09-25T13:34:52.475Z,30.80
2018-09-25T13:36:00.497Z,31.10
2018-09-25T13:37:08.542Z,31.40
2018-09-25T13:38:16.817Z,31.00
2018-09-25T13:39:24.706Z,30.80
2018-09-25T13:40:32.697Z,31.20
2018-09-25T13:41:40.604Z,31.80
2018-09-25T13:42:48.527Z,31.60
2018-09-25T13:43:56.367Z,32.00
2018-09-25T13:45:04.407Z,31.50
2018-09-25T13:46:12.228Z,33.40
2018-09-25T13:47:20.181Z,32.10
2018-09-25T13:48:28.374Z,31.50
2018-09-25T13:49:36.258Z,30.60
2018-09-25T13:50:44.195Z,30.60
2018-09-25T13:51:52.092Z,32.50
2018-09-25T13:52:59.858Z,31.20
2018-09-25T13:54:07.793Z,31.00
2018-09-25T13:55:15.856Z,30.80
2018-09-25T13:56:23.570Z,30.00
2018-09-25T13:57:31.541Z,30.00
2018-09-25T13:58:39.272Z,30.00
2018-09-25T13:59:47.134Z,30.70
2018-09-25T14:00:55.117Z,31.70
2018-09-25T14:02:03.031Z,30.10
2018-09-25T14:03:10.909Z,29.40
2018-09-25T14:04:18.915Z,29.70
2018-09-25T14:05:26.753Z,30.10
2018-09-25T14:06:34.626Z,30.30
2018-09-25T14:07:42.488Z,29.90
2018-09-25T14:08:50.357Z,30.40
2018-09-25T14:09:58.217Z,29.50
2018-09-25T14:11:06.119Z,29.60
2018-09-25T14:12:14.110Z,29.60
2018-09-25T14:13:21.937Z,29.30
2018-09-25T14:14:29.809Z,29.20
2018-09-25T14:15:37.647Z,29.30
2018-09-25T14:16:45.353Z,29.00
2018-09-25T14:17:53.316Z,29.60
2018-09-25T14:19:01.275Z,28.70
2018-09-25T14:20:09.293Z,28.80
2018-09-25T14:21:17.521Z,28.90
2018-09-25T14:22:25.437Z,28.70
2018-09-25T14:23:33.334Z,28.10
2018-09-25T14:24:41.276Z,28.00
2018-09-25T14:25:49.158Z,28.10
2018-09-25T14:26:56.970Z,27.60
2018-09-25T14:28:04.797Z,27.20
2018-09-25T14:29:12.909Z,27.90
2018-09-25T14:30:20.909Z,27.10
2018-09-25T14:31:29.085Z,27.10
2018-09-25T14:32:37.029Z,27.20
2018-09-25T14:33:44.801Z,26.70
2018-09-25T14:34:53.006Z,25.40
2018-09-25T14:36:00.941Z,25.70
2018-09-25T14:37:08.809Z,26.60
2018-09-25T14:38:16.701Z,24.10
2018-09-25T14:39:24.987Z,24.30
2018-09-25T14:40:32.909Z,24.00